Azamara Journey — 9HOB8 — position and weather

sailwx.info

Track history (hours):
 
Tides and Currents Weather Stations Pressure Air Temp Water Temp Dewpoint Dewpoint Depression Visibility Wind Speed Wind Dir Waves Ship Positions

Azamara Journey

Last reported at 2019-Oct-18 03:53 UTC. Time now 2019-Oct-18 09:25 UTC.
Position N 37°29' E 022°49'.

Type: Passenger vessel. MMSI: 256204000.

Date/timePositionNaut miles runAvg speedWind from/ knotsBaromVisibWave heightAir tempDewpointWater temp
2019-Oct-18 03:53N 37°29' E 022°49'1415.2
2019-Oct-18 02:56N 37°16' E 022°57'715.5
2019-Oct-18 02:30N 37°10' E 023°00'914.9
2019-Oct-18 01:54N 37°01' E 023°04'120 5.3
2019-Oct-17 03:00N 37°54' E 020°48'175 6.5 040 / 61015.910.8 22.018.924.0
2019-Oct-16 00:00N 40°30' E 019°06'   1016.4 20.020.022.0
2019-Oct-13 00:00N 44°00' E 014°06'1014.0 220 / 81022.6 18.018.018.0
2019-Oct-12 23:18N 44°08' E 013°59'515.8
2019-Oct-12 23:00N 44°12' E 013°56'915.8
2019-Oct-12 22:25N 44°20' E 013°48'615.5
2019-Oct-12 22:00N 44°25' E 013°44'815.1
2019-Oct-12 21:31N 44°32' E 013°38'714.9
2019-Oct-12 21:00N 44°38' E 013°32'815.1
2019-Oct-12 20:31N 44°44' E 013°26'815.1
2019-Oct-12 20:01N 44°51' E 013°21'815.1
2019-Oct-12 19:30N 44°57' E 013°15'815.2
2019-Oct-12 19:00N 45°03' E 013°09'714.8
2019-Oct-12 18:31N 45°10' E 013°05'714.9
2019-Oct-12 18:01N 45°17' E 013°02'714.1
2019-Oct-12 17:31N 45°24' E 013°04'714.7
2019-Oct-12 17:01N 45°29' E 013°12'714.7
2019-Oct-12 16:31N 45°34' E 013°20'714.7
2019-Oct-12 16:00N 45°37' E 013°30'612.8
2019-Oct-12 15:31N 45°36' E 013°39'5 6.6
2019-Oct-12 14:49N 45°33' E 013°44'0 0.0
2019-Oct-12 14:22N 45°33' E 013°44'0 0.0
2019-Oct-12 13:52N 45°33' E 013°44'0 0.0
2019-Oct-12 13:19N 45°33' E 013°44'0 0.0
2019-Oct-12 12:58N 45°33' E 013°44'0 0.0
2019-Oct-12 12:22N 45°33' E 013°44'3 8.6
2019-Oct-12 12:00N 45°30' E 013°42'3164.2 310 / 101023.1 20.020.019.0
2019-Oct-12 11:58N 45°33' E 013°44'0 0.0
2019-Oct-12 11:25N 45°33' E 013°44'0 0.0
2019-Oct-12 10:52N 45°33' E 013°44'0 0.0
2019-Oct-12 10:16N 45°33' E 013°44'0 0.0
2019-Oct-12 09:58N 45°33' E 013°44'0 0.0
2019-Oct-12 09:28N 45°33' E 013°44'0 0.0
2019-Oct-12 08:55N 45°33' E 013°44'0 0.0
2019-Oct-12 08:07N 45°33' E 013°44'0 0.0
2019-Oct-12 07:49N 45°33' E 013°44'0 0.0
2019-Oct-12 07:13N 45°33' E 013°44'0 0.0
2019-Oct-12 06:58N 45°33' E 013°44'0 0.0
2019-Oct-12 06:25N 45°33' E 013°44'0 0.0
2019-Oct-12 05:52N 45°33' E 013°44'0 0.4
2019-Oct-12 05:30N 45°33' E 013°44'1 2.8
2019-Oct-12 05:00N 45°34' E 013°42'4 7.6
2019-Oct-12 04:30N 45°35' E 013°37'4 7.9
2019-Oct-12 04:00N 45°34' E 013°31'4 7.5
2019-Oct-12 03:30N 45°33' E 013°26'4 7.7
2019-Oct-12 03:00N 45°31' E 013°21'4 7.9
2019-Oct-12 02:30N 45°28' E 013°17'4 7.9
2019-Oct-12 02:00N 45°25' E 013°13'4 7.6
2019-Oct-12 01:30N 45°22' E 013°11'4 7.5
2019-Oct-12 01:00N 45°18' E 013°10'4 7.5
2019-Oct-12 00:30N 45°14' E 013°11'4 7.5
2019-Oct-12 00:00N 45°11' E 013°13'4 7.5
2019-Oct-11 23:30N 45°07' E 013°13'4 7.4
2019-Oct-11 23:00N 45°03' E 013°11'4 7.4
2019-Oct-11 22:30N 45°01' E 013°07'4 7.4
2019-Oct-11 22:00N 45°01' E 013°02'4 7.7
2019-Oct-11 21:30N 45°05' E 012°59'4 7.6
2019-Oct-11 21:00N 45°08' E 012°58'4 7.7
2019-Oct-11 20:30N 45°12' E 012°56'4 8.0
2019-Oct-11 20:00N 45°15' E 012°52'612.2
2019-Oct-11 19:30N 45°17' E 012°44'612.0
2019-Oct-11 19:00N 45°20' E 012°37'611.9
2019-Oct-11 18:30N 45°23' E 012°29'510.1
2019-Oct-11 18:00N 45°26' E 012°24'2 4.0
2019-Oct-11 17:30N 45°26' E 012°21'1 2.2
2019-Oct-11 16:58N 45°26' E 012°19'0 0.0
2019-Oct-11 16:28N 45°26' E 012°19'0 0.0
2019-Oct-11 15:58N 45°26' E 012°19'0 0.0
2019-Oct-11 15:28N 45°26' E 012°19'0 0.0
2019-Oct-11 14:58N 45°26' E 012°19'0 0.0
2019-Oct-11 14:22N 45°26' E 012°19'0 0.0
2019-Oct-11 13:58N 45°26' E 012°19'0 0.0
2019-Oct-11 13:25N 45°26' E 012°19'0 0.0
2019-Oct-11 12:58N 45°26' E 012°19'0 0.0
2019-Oct-11 12:22N 45°26' E 012°19'0 0.0
2019-Oct-11 11:58N 45°26' E 012°19'0 0.0
2019-Oct-11 11:28N 45°26' E 012°19'0 0.0
2019-Oct-11 10:58N 45°26' E 012°19'0 0.0
2019-Oct-11 10:25N 45°26' E 012°19'0 0.0
2019-Oct-11 09:58N 45°26' E 012°19'0 0.0
2019-Oct-11 09:28N 45°26' E 012°19'0 0.0
2019-Oct-11 08:58N 45°26' E 012°19'0 0.0
2019-Oct-11 08:28N 45°26' E 012°19'0 0.0
2019-Oct-11 07:58N 45°26' E 012°19'0 0.0
2019-Oct-11 07:28N 45°26' E 012°19'0 0.0
2019-Oct-11 06:58N 45°26' E 012°19'0 0.0
2019-Oct-11 06:28N 45°26' E 012°19'0 0.0
2019-Oct-11 05:58N 45°26' E 012°19'0 0.0
2019-Oct-11 05:28N 45°26' E 012°19'0 0.0
2019-Oct-11 04:55N 45°26' E 012°19'0 0.0
2019-Oct-11 04:28N 45°26' E 012°19'0 0.0
2019-Oct-11 03:58N 45°26' E 012°19'0 0.0
2019-Oct-11 03:28N 45°26' E 012°19'0 0.0
2019-Oct-11 02:58N 45°26' E 012°19'0 0.0
2019-Oct-11 02:28N 45°26' E 012°19'0 0.0
2019-Oct-11 01:58N 45°26' E 012°19'0 0.0
2019-Oct-11 01:28N 45°26' E 012°19'0 0.0
2019-Oct-11 00:58N 45°26' E 012°19'0 0.0
2019-Oct-11 00:28N 45°26' E 012°19'0 0.0
2019-Oct-10 23:58N 45°26' E 012°19'0 0.0
2019-Oct-10 23:28N 45°26' E 012°19'0 0.0
2019-Oct-10 22:58N 45°26' E 012°19'0 0.0
2019-Oct-10 22:28N 45°26' E 012°19'0 0.0
2019-Oct-10 21:55N 45°26' E 012°19'0 0.0
2019-Oct-10 21:28N 45°26' E 012°19'0 0.0
2019-Oct-10 20:58N 45°26' E 012°19'0 0.0
2019-Oct-10 20:28N 45°26' E 012°19'0 0.0
2019-Oct-10 19:58N 45°26' E 012°19'0 0.0
2019-Oct-10 19:28N 45°26' E 012°19'0 0.0
2019-Oct-10 18:58N 45°26' E 012°19'0 0.0
2019-Oct-10 18:28N 45°26' E 012°19'0 0.0
2019-Oct-10 17:58N 45°26' E 012°19'0 0.0
2019-Oct-10 17:28N 45°26' E 012°19'0 0.0
2019-Oct-10 16:58N 45°26' E 012°19'0 0.0
2019-Oct-10 16:28N 45°26' E 012°19'0 0.0
2019-Oct-10 15:58N 45°26' E 012°19'0 0.0
2019-Oct-10 15:28N 45°26' E 012°19'0 0.0
2019-Oct-10 14:58N 45°26' E 012°19'0 0.0
2019-Oct-10 14:28N 45°26' E 012°19'0 0.0
2019-Oct-10 13:58N 45°26' E 012°19'0 0.0
2019-Oct-10 13:28N 45°26' E 012°19'0 0.0
2019-Oct-10 12:58N 45°26' E 012°19'0 0.0
2019-Oct-10 12:28N 45°26' E 012°19'0 0.0
2019-Oct-10 11:58N 45°26' E 012°19'0 0.0
2019-Oct-10 11:28N 45°26' E 012°19'0 0.0
2019-Oct-10 10:58N 45°26' E 012°19'0 0.0
2019-Oct-10 10:28N 45°26' E 012°19'0 0.0
2019-Oct-10 09:58N 45°26' E 012°19'0 0.0
2019-Oct-10 09:28N 45°26' E 012°19'0 0.0
2019-Oct-10 08:58N 45°26' E 012°19'0 0.0
2019-Oct-10 08:28N 45°26' E 012°19'0 0.0
2019-Oct-10 07:58N 45°26' E 012°19'0 0.0
2019-Oct-10 07:28N 45°26' E 012°19'0 0.0
2019-Oct-10 06:58N 45°26' E 012°19'0 0.0
2019-Oct-10 06:28N 45°26' E 012°19'0 0.0
2019-Oct-10 05:58N 45°26' E 012°19'0 0.0
2019-Oct-10 05:28N 45°26' E 012°19'0 0.0
2019-Oct-10 04:55N 45°26' E 012°19'0 0.0
2019-Oct-10 04:28N 45°26' E 012°19'0 0.0
2019-Oct-10 03:58N 45°26' E 012°19'0 0.0
2019-Oct-10 03:28N 45°26' E 012°19'0 0.0
2019-Oct-10 02:58N 45°26' E 012°19'0 0.0
2019-Oct-10 02:28N 45°26' E 012°19'0 0.0
2019-Oct-10 01:58N 45°26' E 012°19'0 0.0
2019-Oct-10 01:25N 45°26' E 012°19'0 0.0
2019-Oct-10 00:58N 45°26' E 012°19'0 0.0
2019-Oct-10 00:28N 45°26' E 012°19'0 0.0
2019-Oct-09 23:58N 45°26' E 012°19'0 0.0
2019-Oct-09 23:28N 45°26' E 012°19'0 0.0
2019-Oct-09 22:58N 45°26' E 012°19'0 0.0
2019-Oct-09 22:28N 45°26' E 012°19'0 0.0
2019-Oct-09 21:58N 45°26' E 012°19'0 0.0
2019-Oct-09 21:28N 45°26' E 012°19'0 0.0
2019-Oct-09 20:58N 45°26' E 012°19'0 0.0
2019-Oct-09 20:28N 45°26' E 012°19'0 0.0
2019-Oct-09 19:58N 45°26' E 012°19'0 0.0
2019-Oct-09 19:28N 45°26' E 012°19'0 0.0
2019-Oct-09 18:58N 45°26' E 012°19'0 0.0
2019-Oct-09 18:28N 45°26' E 012°19'0 0.0
2019-Oct-09 17:58N 45°26' E 012°19'0 0.0
2019-Oct-09 17:28N 45°26' E 012°19'0 0.0
2019-Oct-09 16:52N 45°26' E 012°19'0 0.0
2019-Oct-09 16:28N 45°26' E 012°19'0 0.0
2019-Oct-09 15:58N 45°26' E 012°19'0 0.0
2019-Oct-09 15:28N 45°26' E 012°19'0 0.0
2019-Oct-09 14:58N 45°26' E 012°19'0 0.0
2019-Oct-09 14:28N 45°26' E 012°19'0 0.0
2019-Oct-09 13:58N 45°26' E 012°19'0 0.0
2019-Oct-09 13:28N 45°26' E 012°19'0 0.0
2019-Oct-09 12:58N 45°26' E 012°19'0 0.0
2019-Oct-09 12:28N 45°26' E 012°19'0 0.0
2019-Oct-09 11:58N 45°26' E 012°19'0 0.0
2019-Oct-09 11:28N 45°26' E 012°19'0 0.0
2019-Oct-09 10:58N 45°26' E 012°19'0 0.0
2019-Oct-09 10:28N 45°26' E 012°19'0 0.0
2019-Oct-09 09:58N 45°26' E 012°19'0 0.0
2019-Oct-09 09:28N 45°26' E 012°19'0 0.0
2019-Oct-09 08:55N 45°26' E 012°19'0 0.0
2019-Oct-09 08:28N 45°26' E 012°19'0 0.0
2019-Oct-09 07:58N 45°26' E 012°19'0 0.0
2019-Oct-09 07:25N 45°26' E 012°19'0 0.0
2019-Oct-09 06:58N 45°26' E 012°19'0 0.5
2019-Oct-09 06:30N 45°26' E 012°19'2 4.6
2019-Oct-09 06:00N 45°25' E 012°22'3 6.2
2019-Oct-09 05:30N 45°25' E 012°26'5 9.9
2019-Oct-09 05:00N 45°22' E 012°32'612.0
2019-Oct-09 04:30N 45°19' E 012°39'612.4
2019-Oct-09 04:00N 45°15' E 012°46'612.1
2019-Oct-09 03:30N 45°12' E 012°53'612.2
2019-Oct-09 03:00N 45°08' E 012°60'612.7
2019-Oct-09 02:30N 45°04' E 013°07'612.5
2019-Oct-09 02:00N 45°00' E 013°14'714.0
2019-Oct-09 01:30N 44°56' E 013°22'815.1
2019-Oct-09 01:00N 44°50' E 013°28'815.2
2019-Oct-09 00:30N 44°44' E 013°34'1515.6
2019-Oct-08 23:34N 44°31' E 013°45'1013.9
2019-Oct-08 22:52N 44°23' E 013°53'1113.7
2019-Oct-08 22:01N 44°14' E 014°02'  
Track history (hours):
 
Tides and Currents Weather Stations Pressure Air Temp Water Temp Dewpoint Dewpoint Depression Visibility Wind Speed Wind Dir Waves Ship Positions

Azamara Journey

Last reported at 2019-Oct-18 03:53 UTC. Time now 2019-Oct-18 09:25 UTC.
Position N 37°29' E 022°49'.

Type: Passenger vessel. MMSI: 256204000.

Date/timePositionNaut miles runAvg speedWind from/ knotsBaromVisibWave heightAir tempDewpointWater temp
2019-Oct-18 03:53N 37°29' E 022°49'1415.2
2019-Oct-18 02:56N 37°16' E 022°57'715.5
2019-Oct-18 02:30N 37°10' E 023°00'914.9
2019-Oct-18 01:54N 37°01' E 023°04'120 5.3
2019-Oct-17 03:00N 37°54' E 020°48'175 6.5 040 / 61015.910.8 22.018.924.0
2019-Oct-16 00:00N 40°30' E 019°06'   1016.4 20.020.022.0
2019-Oct-13 00:00N 44°00' E 014°06'1014.0 220 / 81022.6 18.018.018.0
2019-Oct-12 23:18N 44°08' E 013°59'515.8
2019-Oct-12 23:00N 44°12' E 013°56'915.8
2019-Oct-12 22:25N 44°20' E 013°48'615.5
2019-Oct-12 22:00N 44°25' E 013°44'815.1
2019-Oct-12 21:31N 44°32' E 013°38'714.9
2019-Oct-12 21:00N 44°38' E 013°32'815.1
2019-Oct-12 20:31N 44°44' E 013°26'815.1
2019-Oct-12 20:01N 44°51' E 013°21'815.1
2019-Oct-12 19:30N 44°57' E 013°15'815.2
2019-Oct-12 19:00N 45°03' E 013°09'714.8
2019-Oct-12 18:31N 45°10' E 013°05'714.9
2019-Oct-12 18:01N 45°17' E 013°02'714.1
2019-Oct-12 17:31N 45°24' E 013°04'714.7
2019-Oct-12 17:01N 45°29' E 013°12'714.7
2019-Oct-12 16:31N 45°34' E 013°20'714.7
2019-Oct-12 16:00N 45°37' E 013°30'612.8
2019-Oct-12 15:31N 45°36' E 013°39'5 6.6
2019-Oct-12 14:49N 45°33' E 013°44'0 0.0
2019-Oct-12 14:22N 45°33' E 013°44'0 0.0
2019-Oct-12 13:52N 45°33' E 013°44'0 0.0
2019-Oct-12 13:19N 45°33' E 013°44'0 0.0
2019-Oct-12 12:58N 45°33' E 013°44'0 0.0
2019-Oct-12 12:22N 45°33' E 013°44'3 8.6
2019-Oct-12 12:00N 45°30' E 013°42'3164.2 310 / 101023.1 20.020.019.0
2019-Oct-12 11:58N 45°33' E 013°44'0 0.0
2019-Oct-12 11:25N 45°33' E 013°44'0 0.0
2019-Oct-12 10:52N 45°33' E 013°44'0 0.0
2019-Oct-12 10:16N 45°33' E 013°44'0 0.0
2019-Oct-12 09:58N 45°33' E 013°44'0 0.0
2019-Oct-12 09:28N 45°33' E 013°44'0 0.0
2019-Oct-12 08:55N 45°33' E 013°44'0 0.0
2019-Oct-12 08:07N 45°33' E 013°44'0 0.0
2019-Oct-12 07:49N 45°33' E 013°44'0 0.0
2019-Oct-12 07:13N 45°33' E 013°44'0 0.0
2019-Oct-12 06:58N 45°33' E 013°44'0 0.0
2019-Oct-12 06:25N 45°33' E 013°44'0 0.0
2019-Oct-12 05:52N 45°33' E 013°44'0 0.4
2019-Oct-12 05:30N 45°33' E 013°44'1 2.8
2019-Oct-12 05:00N 45°34' E 013°42'4 7.6
2019-Oct-12 04:30N 45°35' E 013°37'4 7.9
2019-Oct-12 04:00N 45°34' E 013°31'4 7.5
2019-Oct-12 03:30N 45°33' E 013°26'4 7.7
2019-Oct-12 03:00N 45°31' E 013°21'4 7.9
2019-Oct-12 02:30N 45°28' E 013°17'4 7.9
2019-Oct-12 02:00N 45°25' E 013°13'4 7.6
2019-Oct-12 01:30N 45°22' E 013°11'4 7.5
2019-Oct-12 01:00N 45°18' E 013°10'4 7.5
2019-Oct-12 00:30N 45°14' E 013°11'4 7.5
2019-Oct-12 00:00N 45°11' E 013°13'4 7.5
2019-Oct-11 23:30N 45°07' E 013°13'4 7.4
2019-Oct-11 23:00N 45°03' E 013°11'4 7.4
2019-Oct-11 22:30N 45°01' E 013°07'4 7.4
2019-Oct-11 22:00N 45°01' E 013°02'4 7.7
2019-Oct-11 21:30N 45°05' E 012°59'4 7.6
2019-Oct-11 21:00N 45°08' E 012°58'4 7.7
2019-Oct-11 20:30N 45°12' E 012°56'4 8.0
2019-Oct-11 20:00N 45°15' E 012°52'612.2
2019-Oct-11 19:30N 45°17' E 012°44'612.0
2019-Oct-11 19:00N 45°20' E 012°37'611.9
2019-Oct-11 18:30N 45°23' E 012°29'510.1
2019-Oct-11 18:00N 45°26' E 012°24'2 4.0
2019-Oct-11 17:30N 45°26' E 012°21'1 2.2
2019-Oct-11 16:58N 45°26' E 012°19'0 0.0
2019-Oct-11 16:28N 45°26' E 012°19'0 0.0
2019-Oct-11 15:58N 45°26' E 012°19'0 0.0
2019-Oct-11 15:28N 45°26' E 012°19'0 0.0
2019-Oct-11 14:58N 45°26' E 012°19'0 0.0
2019-Oct-11 14:22N 45°26' E 012°19'0 0.0
2019-Oct-11 13:58N 45°26' E 012°19'0 0.0
2019-Oct-11 13:25N 45°26' E 012°19'0 0.0
2019-Oct-11 12:58N 45°26' E 012°19'0 0.0
2019-Oct-11 12:22N 45°26' E 012°19'0 0.0
2019-Oct-11 11:58N 45°26' E 012°19'0 0.0
2019-Oct-11 11:28N 45°26' E 012°19'0 0.0
2019-Oct-11 10:58N 45°26' E 012°19'0 0.0
2019-Oct-11 10:25N 45°26' E 012°19'0 0.0
2019-Oct-11 09:58N 45°26' E 012°19'0 0.0
2019-Oct-11 09:28N 45°26' E 012°19'0 0.0
2019-Oct-11 08:58N 45°26' E 012°19'0 0.0
2019-Oct-11 08:28N 45°26' E 012°19'0 0.0
2019-Oct-11 07:58N 45°26' E 012°19'0 0.0
2019-Oct-11 07:28N 45°26' E 012°19'0 0.0
2019-Oct-11 06:58N 45°26' E 012°19'0 0.0
2019-Oct-11 06:28N 45°26' E 012°19'0 0.0
2019-Oct-11 05:58N 45°26' E 012°19'0 0.0
2019-Oct-11 05:28N 45°26' E 012°19'0 0.0
2019-Oct-11 04:55N 45°26' E 012°19'0 0.0
2019-Oct-11 04:28N 45°26' E 012°19'0 0.0
2019-Oct-11 03:58N 45°26' E 012°19'0 0.0
2019-Oct-11 03:28N 45°26' E 012°19'0 0.0
2019-Oct-11 02:58N 45°26' E 012°19'0 0.0
2019-Oct-11 02:28N 45°26' E 012°19'0 0.0
2019-Oct-11 01:58N 45°26' E 012°19'0 0.0
2019-Oct-11 01:28N 45°26' E 012°19'0 0.0
2019-Oct-11 00:58N 45°26' E 012°19'0 0.0
2019-Oct-11 00:28N 45°26' E 012°19'0 0.0
2019-Oct-10 23:58N 45°26' E 012°19'0 0.0
2019-Oct-10 23:28N 45°26' E 012°19'0 0.0
2019-Oct-10 22:58N 45°26' E 012°19'0 0.0
2019-Oct-10 22:28N 45°26' E 012°19'0 0.0
2019-Oct-10 21:55N 45°26' E 012°19'0 0.0
2019-Oct-10 21:28N 45°26' E 012°19'0 0.0
2019-Oct-10 20:58N 45°26' E 012°19'0 0.0
2019-Oct-10 20:28N 45°26' E 012°19'0 0.0
2019-Oct-10 19:58N 45°26' E 012°19'0 0.0
2019-Oct-10 19:28N 45°26' E 012°19'0 0.0
2019-Oct-10 18:58N 45°26' E 012°19'0 0.0
2019-Oct-10 18:28N 45°26' E 012°19'0 0.0
2019-Oct-10 17:58N 45°26' E 012°19'0 0.0
2019-Oct-10 17:28N 45°26' E 012°19'0 0.0
2019-Oct-10 16:58N 45°26' E 012°19'0 0.0
2019-Oct-10 16:28N 45°26' E 012°19'0 0.0
2019-Oct-10 15:58N 45°26' E 012°19'0 0.0
2019-Oct-10 15:28N 45°26' E 012°19'0 0.0
2019-Oct-10 14:58N 45°26' E 012°19'0 0.0
2019-Oct-10 14:28N 45°26' E 012°19'0 0.0
2019-Oct-10 13:58N 45°26' E 012°19'0 0.0
2019-Oct-10 13:28N 45°26' E 012°19'0 0.0
2019-Oct-10 12:58N 45°26' E 012°19'0 0.0
2019-Oct-10 12:28N 45°26' E 012°19'0 0.0
2019-Oct-10 11:58N 45°26' E 012°19'0 0.0
2019-Oct-10 11:28N 45°26' E 012°19'0 0.0
2019-Oct-10 10:58N 45°26' E 012°19'0 0.0
2019-Oct-10 10:28N 45°26' E 012°19'0 0.0
2019-Oct-10 09:58N 45°26' E 012°19'0 0.0
2019-Oct-10 09:28N 45°26' E 012°19'0 0.0
2019-Oct-10 08:58N 45°26' E 012°19'0 0.0
2019-Oct-10 08:28N 45°26' E 012°19'0 0.0
2019-Oct-10 07:58N 45°26' E 012°19'0 0.0
2019-Oct-10 07:28N 45°26' E 012°19'0 0.0
2019-Oct-10 06:58N 45°26' E 012°19'0 0.0
2019-Oct-10 06:28N 45°26' E 012°19'0 0.0
2019-Oct-10 05:58N 45°26' E 012°19'0 0.0
2019-Oct-10 05:28N 45°26' E 012°19'0 0.0
2019-Oct-10 04:55N 45°26' E 012°19'0 0.0
2019-Oct-10 04:28N 45°26' E 012°19'0 0.0
2019-Oct-10 03:58N 45°26' E 012°19'0 0.0
2019-Oct-10 03:28N 45°26' E 012°19'0 0.0
2019-Oct-10 02:58N 45°26' E 012°19'0 0.0
2019-Oct-10 02:28N 45°26' E 012°19'0 0.0
2019-Oct-10 01:58N 45°26' E 012°19'0 0.0
2019-Oct-10 01:25N 45°26' E 012°19'0 0.0
2019-Oct-10 00:58N 45°26' E 012°19'0 0.0
2019-Oct-10 00:28N 45°26' E 012°19'0 0.0
2019-Oct-09 23:58N 45°26' E 012°19'0 0.0
2019-Oct-09 23:28N 45°26' E 012°19'0 0.0
2019-Oct-09 22:58N 45°26' E 012°19'0 0.0
2019-Oct-09 22:28N 45°26' E 012°19'0 0.0
2019-Oct-09 21:58N 45°26' E 012°19'0 0.0
2019-Oct-09 21:28N 45°26' E 012°19'0 0.0
2019-Oct-09 20:58N 45°26' E 012°19'0 0.0
2019-Oct-09 20:28N 45°26' E 012°19'0 0.0
2019-Oct-09 19:58N 45°26' E 012°19'0 0.0
2019-Oct-09 19:28N 45°26' E 012°19'0 0.0
2019-Oct-09 18:58N 45°26' E 012°19'0 0.0
2019-Oct-09 18:28N 45°26' E 012°19'0 0.0
2019-Oct-09 17:58N 45°26' E 012°19'0 0.0
2019-Oct-09 17:28N 45°26' E 012°19'0 0.0
2019-Oct-09 16:52N 45°26' E 012°19'0 0.0
2019-Oct-09 16:28N 45°26' E 012°19'0 0.0
2019-Oct-09 15:58N 45°26' E 012°19'0 0.0
2019-Oct-09 15:28N 45°26' E 012°19'0 0.0
2019-Oct-09 14:58N 45°26' E 012°19'0 0.0
2019-Oct-09 14:28N 45°26' E 012°19'0 0.0
2019-Oct-09 13:58N 45°26' E 012°19'0 0.0
2019-Oct-09 13:28N 45°26' E 012°19'0 0.0
2019-Oct-09 12:58N 45°26' E 012°19'0 0.0
2019-Oct-09 12:28N 45°26' E 012°19'0 0.0
2019-Oct-09 11:58N 45°26' E 012°19'0 0.0
2019-Oct-09 11:28N 45°26' E 012°19'0 0.0
2019-Oct-09 10:58N 45°26' E 012°19'0 0.0
2019-Oct-09 10:28N 45°26' E 012°19'0 0.0
2019-Oct-09 09:58N 45°26' E 012°19'0 0.0
2019-Oct-09 09:28N 45°26' E 012°19'0 0.0
2019-Oct-09 08:55N 45°26' E 012°19'0 0.0
2019-Oct-09 08:28N 45°26' E 012°19'0 0.0
2019-Oct-09 07:58N 45°26' E 012°19'0 0.0
2019-Oct-09 07:25N 45°26' E 012°19'0 0.0
2019-Oct-09 06:58N 45°26' E 012°19'0 0.5
2019-Oct-09 06:30N 45°26' E 012°19'2 4.6
2019-Oct-09 06:00N 45°25' E 012°22'3 6.2
2019-Oct-09 05:30N 45°25' E 012°26'5 9.9
2019-Oct-09 05:00N 45°22' E 012°32'612.0
2019-Oct-09 04:30N 45°19' E 012°39'612.4
2019-Oct-09 04:00N 45°15' E 012°46'612.1
2019-Oct-09 03:30N 45°12' E 012°53'612.2
2019-Oct-09 03:00N 45°08' E 012°60'612.7
2019-Oct-09 02:30N 45°04' E 013°07'612.5
2019-Oct-09 02:00N 45°00' E 013°14'714.0
2019-Oct-09 01:30N 44°56' E 013°22'815.1
2019-Oct-09 01:00N 44°50' E 013°28'815.2
2019-Oct-09 00:30N 44°44' E 013°34'1515.6
2019-Oct-08 23:34N 44°31' E 013°45'1013.9
2019-Oct-08 22:52N 44°23' E 013°53'1113.7
2019-Oct-08 22:01N 44°14' E 014°02'  

Dump ship's entire track history